Powhatan, AR

4:05 PM CST on February 28, 2015 (GMT -0600)
Walnut Ridge Regional | Change Station
CLOSE
Current Station
Airport
Location: Walnut Ridge,
Elevation: 272 ft
Nearby Weather Stations
Active Advisory: Winter Weather Advisory Active Notice: Record Report

Elev 272 ft 36.12 °N, 90.93 °W | Updated 10 minutes ago

Overcast
Overcast
28 °F
Feels Like 18 °F
N
13
Wind Variable Wind from ENE

Today
High -- | Low -- °F
--% Chance of Precip.
Yesterday
High -- | Low -- °F
Precip. -- in
6:36 AM 5:58 PM
Waxing Gibbous, 80% visible
Pressure 30.42 in
Visibility 10.0 miles
Clouds Scattered Clouds 7500 ft
Windchill 18 °F
Dew Point 21 °F
Humidity 74%
Rainfall 0.00 in
Snow Depth Not available.
UV 1 out of 12
Pollen 4.50 out of 12
Air Quality Not available.
Flu Activity Not available.
METAR KARG 282155Z AUTO 07011KT 10SM SCT075 M02/M06 A3042 RMK AO1

More Conditions Fewer Conditions

Pressure 30.42 in
Visibility 10.0 miles
Clouds Scattered Clouds 7500 ft
Windchill 18 °F
Dew Point 21 °F
Humidity 74%
Rainfall 0.00 in
Snow Depth Not available.
UV 1 out of 12
Pollen 4.50 out of 12
Air Quality Not available.
Flu Activity Not available.
METAR KARG 282155Z AUTO 07011KT 10SM SCT075 M02/M06 A3042 RMK AO1

More Conditions Fewer Conditions

10-Day Weather Forecast

Almanac

Astronomy

Feb. 28, 2015 Rise Set
Actual Time
Civil Twilight
Nautical Twilight
Astronomical Twilight
Moon
Length of Visible Light
Length of Day
Tomorrow will be .
, % of the Moon is Illuminated

Today's Extremes

State Highs State Lows

Community

WunderPhotos

Upload Photos

1,801,177 photos uploaded!

WunderBlogs® & News

Nearby

Air Quality

  Air Quality AQ Index Pollutant
Not available.

Snow Depth

Station Depth Elevation

Earthquake Activity

City Distance Mag. Time & Date
Minimum magnitude displayed is 2.5.

Coastal Water Temperatures

Place Temperature

Nearby Weather Stations

Winter Weather Advisory
Statement as of 3:31 PM CST on February 28, 2015

... Winter Weather Advisory in effect from 10 PM this evening to
8 am CST Sunday...

The National Weather Service in Memphis has issued a Winter
Weather Advisory for freezing rain... which is in effect from 10
PM this evening to 8 am CST Sunday.

* Ice accumulations... less than one tenth of an inch.

* Timing... between 10 PM CST tonight through 8 am CST Sunday.

* Impacts... freezing rain may make travel hazardous across the
advisory area.

Precautionary/preparedness actions...

A Winter Weather Advisory means that freezing rain will cause
travel difficulties. Be prepared for slippery roads and use
extreme caution while driving.